sensor_id;sensor_type;location;lat;lon;timestamp;P1;durP1;ratioP1;P2;durP2;ratioP2
75887;SDS011;64562;55.662;37.300;2023-11-19T00:00:22;5.03;;;2.88;;
75887;SDS011;64562;55.662;37.300;2023-11-19T00:02:49;6.40;;;2.72;;
75887;SDS011;64562;55.662;37.300;2023-11-19T00:05:15;10.07;;;2.97;;
75887;SDS011;64562;55.662;37.300;2023-11-19T00:07:42;6.53;;;2.90;;
75887;SDS011;64562;55.662;37.300;2023-11-19T00:10:09;5.47;;;2.95;;
75887;SDS011;64562;55.662;37.300;2023-11-19T00:12:36;7.20;;;2.50;;
75887;SDS011;64562;55.662;37.300;2023-11-19T00:15:03;6.53;;;2.90;;
75887;SDS011;64562;55.662;37.300;2023-11-19T00:17:31;6.75;;;2.58;;
75887;SDS011;64562;55.662;37.300;2023-11-19T00:19:58;4.82;;;2.47;;
75887;SDS011;64562;55.662;37.300;2023-11-19T00:22:25;10.07;;;2.70;;
75887;SDS011;64562;55.662;37.300;2023-11-19T00:24:51;5.35;;;2.53;;
75887;SDS011;64562;55.662;37.300;2023-11-19T00:27:18;5.53;;;2.30;;
75887;SDS011;64562;55.662;37.300;2023-11-19T00:29:44;5.40;;;2.55;;
75887;SDS011;64562;55.662;37.300;2023-11-19T00:32:11;6.15;;;2.70;;
75887;SDS011;64562;55.662;37.300;2023-11-19T00:34:39;4.50;;;2.67;;
75887;SDS011;64562;55.662;37.300;2023-11-19T00:37:06;3.85;;;2.38;;
75887;SDS011;64562;55.662;37.300;2023-11-19T00:39:33;6.22;;;2.90;;
75887;SDS011;64562;55.662;37.300;2023-11-19T00:41:59;3.92;;;2.60;;
75887;SDS011;64562;55.662;37.300;2023-11-19T00:44:26;8.15;;;2.90;;
75887;SDS011;64562;55.662;37.300;2023-11-19T00:46:52;5.13;;;2.65;;
75887;SDS011;64562;55.662;37.300;2023-11-19T00:49:19;5.60;;;2.55;;
75887;SDS011;64562;55.662;37.300;2023-11-19T00:51:47;6.63;;;3.08;;
75887;SDS011;64562;55.662;37.300;2023-11-19T00:54:14;8.15;;;2.55;;
75887;SDS011;64562;55.662;37.300;2023-11-19T00:56:40;5.40;;;2.70;;
75887;SDS011;64562;55.662;37.300;2023-11-19T00:59:07;4.93;;;2.85;;
75887;SDS011;64562;55.662;37.300;2023-11-19T01:01:33;5.28;;;2.40;;
75887;SDS011;64562;55.662;37.300;2023-11-19T01:04:00;5.78;;;2.83;;
75887;SDS011;64562;55.662;37.300;2023-11-19T01:06:27;6.53;;;3.17;;
75887;SDS011;64562;55.662;37.300;2023-11-19T01:08:55;4.82;;;2.75;;
75887;SDS011;64562;55.662;37.300;2023-11-19T01:11:22;4.65;;;2.63;;
75887;SDS011;64562;55.662;37.300;2023-11-19T01:13:49;6.30;;;2.78;;
75887;SDS011;64562;55.662;37.300;2023-11-19T01:16:16;7.82;;;3.15;;
75887;SDS011;64562;55.662;37.300;2023-11-19T01:18:42;7.00;;;3.22;;
75887;SDS011;64562;55.662;37.300;2023-11-19T01:21:09;4.90;;;2.67;;
75887;SDS011;64562;55.662;37.300;2023-11-19T01:23:35;6.35;;;3.00;;
75887;SDS011;64562;55.662;37.300;2023-11-19T01:26:04;4.55;;;2.67;;
75887;SDS011;64562;55.662;37.300;2023-11-19T01:28:31;4.22;;;2.50;;
75887;SDS011;64562;55.662;37.300;2023-11-19T01:30:57;5.72;;;3.10;;
75887;SDS011;64562;55.662;37.300;2023-11-19T01:33:24;4.90;;;2.63;;
75887;SDS011;64562;55.662;37.300;2023-11-19T01:35:50;5.72;;;3.00;;
75887;SDS011;64562;55.662;37.300;2023-11-19T01:38:17;7.15;;;3.13;;
75887;SDS011;64562;55.662;37.300;2023-11-19T01:40:44;5.75;;;2.85;;
75887;SDS011;64562;55.662;37.300;2023-11-19T01:43:11;4.95;;;2.70;;
75887;SDS011;64562;55.662;37.300;2023-11-19T01:45:40;5.97;;;2.92;;
75887;SDS011;64562;55.662;37.300;2023-11-19T01:48:06;3.95;;;2.50;;
75887;SDS011;64562;55.662;37.300;2023-11-19T01:50:36;5.13;;;2.55;;
75887;SDS011;64562;55.662;37.300;2023-11-19T01:53:03;6.00;;;3.15;;
75887;SDS011;64562;55.662;37.300;2023-11-19T01:55:29;5.45;;;3.13;;
75887;SDS011;64562;55.662;37.300;2023-11-19T01:57:57;5.80;;;2.85;;
75887;SDS011;64562;55.662;37.300;2023-11-19T02:00:27;6.93;;;3.20;;
75887;SDS011;64562;55.662;37.300;2023-11-19T02:02:53;7.68;;;3.10;;
75887;SDS011;64562;55.662;37.300;2023-11-19T02:05:20;6.30;;;3.05;;
75887;SDS011;64562;55.662;37.300;2023-11-19T02:07:48;6.05;;;2.70;;
75887;SDS011;64562;55.662;37.300;2023-11-19T02:10:15;7.57;;;3.08;;
75887;SDS011;64562;55.662;37.300;2023-11-19T02:12:44;7.30;;;3.00;;
75887;SDS011;64562;55.662;37.300;2023-11-19T02:15:11;7.30;;;3.47;;
75887;SDS011;64562;55.662;37.300;2023-11-19T02:17:39;6.35;;;3.03;;
75887;SDS011;64562;55.662;37.300;2023-11-19T02:20:06;5.45;;;2.85;;
75887;SDS011;64562;55.662;37.300;2023-11-19T02:22:34;6.28;;;3.10;;
75887;SDS011;64562;55.662;37.300;2023-11-19T02:25:03;8.35;;;2.97;;
75887;SDS011;64562;55.662;37.300;2023-11-19T02:27:39;5.90;;;3.10;;
75887;SDS011;64562;55.662;37.300;2023-11-19T02:30:06;5.78;;;3.05;;
75887;SDS011;64562;55.662;37.300;2023-11-19T02:32:33;4.68;;;2.60;;
75887;SDS011;64562;55.662;37.300;2023-11-19T02:35:00;5.75;;;3.28;;
75887;SDS011;64562;55.662;37.300;2023-11-19T02:37:27;6.82;;;2.97;;
75887;SDS011;64562;55.662;37.300;2023-11-19T02:39:55;10.43;;;3.03;;
75887;SDS011;64562;55.662;37.300;2023-11-19T02:42:21;4.82;;;2.72;;
75887;SDS011;64562;55.662;37.300;2023-11-19T02:44:49;8.27;;;3.47;;
75887;SDS011;64562;55.662;37.300;2023-11-19T02:47:16;4.18;;;2.55;;
75887;SDS011;64562;55.662;37.300;2023-11-19T02:49:42;6.00;;;2.63;;
75887;SDS011;64562;55.662;37.300;2023-11-19T02:52:09;5.78;;;3.15;;
75887;SDS011;64562;55.662;37.300;2023-11-19T02:54:36;5.55;;;2.88;;
75887;SDS011;64562;55.662;37.300;2023-11-19T02:57:03;4.75;;;2.88;;
75887;SDS011;64562;55.662;37.300;2023-11-19T02:59:30;6.93;;;3.28;;
75887;SDS011;64562;55.662;37.300;2023-11-19T03:02:05;4.95;;;3.00;;
75887;SDS011;64562;55.662;37.300;2023-11-19T03:04:32;4.13;;;2.65;;
75887;SDS011;64562;55.662;37.300;2023-11-19T03:06:59;5.43;;;2.97;;
75887;SDS011;64562;55.662;37.300;2023-11-19T03:09:25;6.93;;;3.10;;
75887;SDS011;64562;55.662;37.300;2023-11-19T03:11:53;6.65;;;3.03;;
75887;SDS011;64562;55.662;37.300;2023-11-19T03:14:19;6.15;;;2.97;;
75887;SDS011;64562;55.662;37.300;2023-11-19T03:16:48;5.90;;;2.80;;
75887;SDS011;64562;55.662;37.300;2023-11-19T03:19:16;7.00;;;2.90;;
75887;SDS011;64562;55.662;37.300;2023-11-19T03:21:42;5.63;;;2.83;;
75887;SDS011;64562;55.662;37.300;2023-11-19T03:24:10;6.65;;;3.20;;
75887;SDS011;64562;55.662;37.300;2023-11-19T03:26:35;5.80;;;3.15;;
75887;SDS011;64562;55.662;37.300;2023-11-19T03:29:02;6.40;;;2.95;;
75887;SDS011;64562;55.662;37.300;2023-11-19T03:31:29;7.20;;;3.20;;
75887;SDS011;64562;55.662;37.300;2023-11-19T03:33:55;8.65;;;3.20;;
75887;SDS011;64562;55.662;37.300;2023-11-19T03:36:23;6.93;;;3.15;;
75887;SDS011;64562;55.662;37.300;2023-11-19T03:38:50;8.00;;;3.17;;
75887;SDS011;64562;55.662;37.300;2023-11-19T03:41:17;4.55;;;3.00;;
75887;SDS011;64562;55.662;37.300;2023-11-19T03:43:44;6.15;;;3.00;;
75887;SDS011;64562;55.662;37.300;2023-11-19T03:46:17;4.95;;;2.85;;
75887;SDS011;64562;55.662;37.300;2023-11-19T03:48:44;4.88;;;2.95;;
75887;SDS011;64562;55.662;37.300;2023-11-19T03:51:11;7.28;;;3.03;;
75887;SDS011;64562;55.662;37.300;2023-11-19T03:53:41;6.68;;;3.38;;
75887;SDS011;64562;55.662;37.300;2023-11-19T03:56:08;6.60;;;3.45;;
75887;SDS011;64562;55.662;37.300;2023-11-19T03:58:35;7.07;;;3.42;;
75887;SDS011;64562;55.662;37.300;2023-11-19T04:01:03;6.50;;;3.30;;
75887;SDS011;64562;55.662;37.300;2023-11-19T04:03:30;6.70;;;3.00;;
75887;SDS011;64562;55.662;37.300;2023-11-19T04:05:56;6.32;;;3.38;;
75887;SDS011;64562;55.662;37.300;2023-11-19T04:08:24;5.93;;;3.00;;
75887;SDS011;64562;55.662;37.300;2023-11-19T04:10:52;7.68;;;3.45;;
75887;SDS011;64562;55.662;37.300;2023-11-19T04:13:19;7.30;;;3.50;;
75887;SDS011;64562;55.662;37.300;2023-11-19T04:15:45;5.20;;;3.25;;
75887;SDS011;64562;55.662;37.300;2023-11-19T04:18:12;5.68;;;3.30;;
75887;SDS011;64562;55.662;37.300;2023-11-19T04:20:38;9.13;;;4.43;;
75887;SDS011;64562;55.662;37.300;2023-11-19T04:23:07;8.05;;;4.53;;
75887;SDS011;64562;55.662;37.300;2023-11-19T04:25:34;6.78;;;3.60;;
75887;SDS011;64562;55.662;37.300;2023-11-19T04:28:02;7.65;;;4.40;;
75887;SDS011;64562;55.662;37.300;2023-11-19T04:30:29;6.47;;;4.03;;
75887;SDS011;64562;55.662;37.300;2023-11-19T04:32:57;8.55;;;4.38;;
75887;SDS011;64562;55.662;37.300;2023-11-19T04:35:23;11.48;;;3.88;;
75887;SDS011;64562;55.662;37.300;2023-11-19T04:37:51;8.63;;;3.85;;
75887;SDS011;64562;55.662;37.300;2023-11-19T04:40:17;9.38;;;4.00;;
75887;SDS011;64562;55.662;37.300;2023-11-19T04:42:44;6.75;;;3.75;;
75887;SDS011;64562;55.662;37.300;2023-11-19T04:45:12;6.80;;;3.17;;
75887;SDS011;64562;55.662;37.300;2023-11-19T04:47:40;7.10;;;3.47;;
75887;SDS011;64562;55.662;37.300;2023-11-19T04:50:06;6.95;;;3.13;;
75887;SDS011;64562;55.662;37.300;2023-11-19T04:52:36;6.15;;;3.30;;
75887;SDS011;64562;55.662;37.300;2023-11-19T04:55:03;6.75;;;3.42;;
75887;SDS011;64562;55.662;37.300;2023-11-19T04:57:30;5.53;;;3.38;;
75887;SDS011;64562;55.662;37.300;2023-11-19T04:59:57;5.57;;;3.53;;
75887;SDS011;64562;55.662;37.300;2023-11-19T05:02:25;6.28;;;3.42;;
75887;SDS011;64562;55.662;37.300;2023-11-19T05:04:52;5.97;;;3.22;;
75887;SDS011;64562;55.662;37.300;2023-11-19T05:07:18;7.60;;;3.30;;
75887;SDS011;64562;55.662;37.300;2023-11-19T05:09:45;6.95;;;3.42;;
75887;SDS011;64562;55.662;37.300;2023-11-19T05:12:12;7.50;;;4.15;;
75887;SDS011;64562;55.662;37.300;2023-11-19T05:14:38;7.93;;;4.05;;
75887;SDS011;64562;55.662;37.300;2023-11-19T05:17:05;5.07;;;3.10;;
75887;SDS011;64562;55.662;37.300;2023-11-19T05:19:34;6.55;;;3.72;;
75887;SDS011;64562;55.662;37.300;2023-11-19T05:22:01;7.18;;;3.42;;
75887;SDS011;64562;55.662;37.300;2023-11-19T05:24:27;8.02;;;3.25;;
75887;SDS011;64562;55.662;37.300;2023-11-19T05:26:54;9.15;;;3.45;;
75887;SDS011;64562;55.662;37.300;2023-11-19T05:29:21;6.72;;;3.53;;
75887;SDS011;64562;55.662;37.300;2023-11-19T05:31:48;5.85;;;3.33;;
75887;SDS011;64562;55.662;37.300;2023-11-19T05:34:14;6.57;;;3.35;;
75887;SDS011;64562;55.662;37.300;2023-11-19T05:36:42;7.10;;;3.75;;
75887;SDS011;64562;55.662;37.300;2023-11-19T05:39:09;6.93;;;3.28;;
75887;SDS011;64562;55.662;37.300;2023-11-19T05:41:36;6.78;;;3.47;;
75887;SDS011;64562;55.662;37.300;2023-11-19T05:44:03;7.63;;;3.63;;
75887;SDS011;64562;55.662;37.300;2023-11-19T05:46:29;7.22;;;3.42;;
75887;SDS011;64562;55.662;37.300;2023-11-19T05:48:56;6.38;;;3.47;;
75887;SDS011;64562;55.662;37.300;2023-11-19T05:51:23;5.53;;;3.13;;
75887;SDS011;64562;55.662;37.300;2023-11-19T05:53:51;6.10;;;3.35;;
75887;SDS011;64562;55.662;37.300;2023-11-19T05:56:20;5.22;;;3.00;;
75887;SDS011;64562;55.662;37.300;2023-11-19T05:58:47;7.10;;;3.88;;
75887;SDS011;64562;55.662;37.300;2023-11-19T06:01:14;6.78;;;3.47;;
75887;SDS011;64562;55.662;37.300;2023-11-19T06:03:41;10.25;;;4.03;;
75887;SDS011;64562;55.662;37.300;2023-11-19T06:06:08;9.93;;;4.28;;
75887;SDS011;64562;55.662;37.300;2023-11-19T06:08:36;6.18;;;3.40;;
75887;SDS011;64562;55.662;37.300;2023-11-19T06:11:04;7.07;;;3.45;;
75887;SDS011;64562;55.662;37.300;2023-11-19T06:13:31;9.82;;;4.00;;
75887;SDS011;64562;55.662;37.300;2023-11-19T06:15:57;9.00;;;3.85;;
75887;SDS011;64562;55.662;37.300;2023-11-19T06:18:24;11.55;;;4.53;;
75887;SDS011;64562;55.662;37.300;2023-11-19T06:20:50;10.23;;;3.58;;
75887;SDS011;64562;55.662;37.300;2023-11-19T06:23:17;6.72;;;3.83;;
75887;SDS011;64562;55.662;37.300;2023-11-19T06:25:44;9.52;;;3.70;;
75887;SDS011;64562;55.662;37.300;2023-11-19T06:28:12;7.15;;;3.97;;
75887;SDS011;64562;55.662;37.300;2023-11-19T06:30:39;8.43;;;4.10;;
75887;SDS011;64562;55.662;37.300;2023-11-19T06:33:06;8.70;;;3.85;;
75887;SDS011;64562;55.662;37.300;2023-11-19T06:35:33;7.20;;;3.60;;
75887;SDS011;64562;55.662;37.300;2023-11-19T06:38:01;6.88;;;3.70;;
75887;SDS011;64562;55.662;37.300;2023-11-19T06:40:28;9.07;;;4.07;;
75887;SDS011;64562;55.662;37.300;2023-11-19T06:42:55;8.10;;;3.58;;
75887;SDS011;64562;55.662;37.300;2023-11-19T06:45:23;12.40;;;4.00;;
75887;SDS011;64562;55.662;37.300;2023-11-19T06:47:50;14.18;;;3.85;;
75887;SDS011;64562;55.662;37.300;2023-11-19T06:50:16;7.10;;;3.45;;
75887;SDS011;64562;55.662;37.300;2023-11-19T06:52:44;10.43;;;3.90;;
75887;SDS011;64562;55.662;37.300;2023-11-19T06:55:11;7.70;;;3.70;;
75887;SDS011;64562;55.662;37.300;2023-11-19T06:57:37;7.53;;;3.95;;
75887;SDS011;64562;55.662;37.300;2023-11-19T07:00:05;8.25;;;3.70;;
75887;SDS011;64562;55.662;37.300;2023-11-19T07:02:33;10.48;;;4.47;;
75887;SDS011;64562;55.662;37.300;2023-11-19T07:04:59;11.80;;;4.53;;
75887;SDS011;64562;55.662;37.300;2023-11-19T07:07:26;12.88;;;3.97;;
75887;SDS011;64562;55.662;37.300;2023-11-19T07:09:52;9.63;;;4.15;;
75887;SDS011;64562;55.662;37.300;2023-11-19T07:12:19;8.75;;;4.05;;
75887;SDS011;64562;55.662;37.300;2023-11-19T07:14:46;11.10;;;3.75;;
75887;SDS011;64562;55.662;37.300;2023-11-19T07:17:12;9.00;;;4.18;;
75887;SDS011;64562;55.662;37.300;2023-11-19T07:19:42;11.18;;;4.30;;
75887;SDS011;64562;55.662;37.300;2023-11-19T07:22:09;8.70;;;3.60;;
75887;SDS011;64562;55.662;37.300;2023-11-19T07:24:38;8.52;;;3.55;;
75887;SDS011;64562;55.662;37.300;2023-11-19T07:27:05;7.18;;;3.58;;
75887;SDS011;64562;55.662;37.300;2023-11-19T07:29:31;9.00;;;4.07;;
75887;SDS011;64562;55.662;37.300;2023-11-19T07:31:58;8.05;;;3.78;;
75887;SDS011;64562;55.662;37.300;2023-11-19T07:34:27;8.38;;;4.05;;
75887;SDS011;64562;55.662;37.300;2023-11-19T07:36:55;8.15;;;4.40;;
75887;SDS011;64562;55.662;37.300;2023-11-19T07:39:24;7.28;;;3.60;;
75887;SDS011;64562;55.662;37.300;2023-11-19T07:41:51;7.90;;;3.60;;
75887;SDS011;64562;55.662;37.300;2023-11-19T07:44:17;7.70;;;3.58;;
75887;SDS011;64562;55.662;37.300;2023-11-19T07:46:44;8.65;;;4.10;;
75887;SDS011;64562;55.662;37.300;2023-11-19T07:49:11;7.65;;;3.83;;
75887;SDS011;64562;55.662;37.300;2023-11-19T07:51:37;10.35;;;3.63;;
75887;SDS011;64562;55.662;37.300;2023-11-19T07:54:05;8.32;;;3.85;;
75887;SDS011;64562;55.662;37.300;2023-11-19T07:56:33;8.93;;;3.72;;
75887;SDS011;64562;55.662;37.300;2023-11-19T07:59:00;7.82;;;4.03;;
75887;SDS011;64562;55.662;37.300;2023-11-19T08:01:27;6.45;;;3.35;;
75887;SDS011;64562;55.662;37.300;2023-11-19T08:03:53;8.30;;;4.05;;
75887;SDS011;64562;55.662;37.300;2023-11-19T08:06:20;7.22;;;3.20;;
75887;SDS011;64562;55.662;37.300;2023-11-19T08:08:47;8.10;;;3.30;;
75887;SDS011;64562;55.662;37.300;2023-11-19T08:11:15;7.55;;;3.40;;
75887;SDS011;64562;55.662;37.300;2023-11-19T08:13:42;7.22;;;3.50;;
75887;SDS011;64562;55.662;37.300;2023-11-19T08:16:08;6.38;;;3.50;;
75887;SDS011;64562;55.662;37.300;2023-11-19T08:18:36;7.15;;;3.60;;
75887;SDS011;64562;55.662;37.300;2023-11-19T08:21:02;6.85;;;3.30;;
75887;SDS011;64562;55.662;37.300;2023-11-19T08:23:30;7.38;;;3.38;;
75887;SDS011;64562;55.662;37.300;2023-11-19T08:25:56;6.53;;;3.40;;
75887;SDS011;64562;55.662;37.300;2023-11-19T08:28:24;7.20;;;3.47;;
75887;SDS011;64562;55.662;37.300;2023-11-19T08:30:51;5.68;;;3.22;;
75887;SDS011;64562;55.662;37.300;2023-11-19T08:33:17;7.68;;;3.63;;
75887;SDS011;64562;55.662;37.300;2023-11-19T08:35:44;6.28;;;3.35;;
75887;SDS011;64562;55.662;37.300;2023-11-19T08:38:12;6.85;;;3.10;;
75887;SDS011;64562;55.662;37.300;2023-11-19T08:40:39;6.82;;;3.25;;
75887;SDS011;64562;55.662;37.300;2023-11-19T08:43:05;6.78;;;3.45;;
75887;SDS011;64562;55.662;37.300;2023-11-19T08:45:34;6.65;;;3.13;;
75887;SDS011;64562;55.662;37.300;2023-11-19T08:48:01;6.18;;;2.83;;
75887;SDS011;64562;55.662;37.300;2023-11-19T08:50:28;6.90;;;3.28;;
75887;SDS011;64562;55.662;37.300;2023-11-19T08:52:54;7.45;;;3.58;;
75887;SDS011;64562;55.662;37.300;2023-11-19T08:55:21;7.45;;;3.10;;
75887;SDS011;64562;55.662;37.300;2023-11-19T08:57:48;6.97;;;3.10;;
75887;SDS011;64562;55.662;37.300;2023-11-19T09:00:14;7.88;;;3.50;;
75887;SDS011;64562;55.662;37.300;2023-11-19T09:02:42;5.65;;;2.67;;
75887;SDS011;64562;55.662;37.300;2023-11-19T09:05:08;6.47;;;3.47;;
75887;SDS011;64562;55.662;37.300;2023-11-19T09:07:35;6.30;;;2.85;;
75887;SDS011;64562;55.662;37.300;2023-11-19T09:10:01;7.10;;;3.33;;
75887;SDS011;64562;55.662;37.300;2023-11-19T09:12:30;4.78;;;2.72;;
75887;SDS011;64562;55.662;37.300;2023-11-19T09:14:57;5.78;;;3.05;;
75887;SDS011;64562;55.662;37.300;2023-11-19T09:17:23;9.52;;;2.80;;
75887;SDS011;64562;55.662;37.300;2023-11-19T09:19:51;9.05;;;3.38;;
75887;SDS011;64562;55.662;37.300;2023-11-19T09:22:18;7.78;;;3.42;;
75887;SDS011;64562;55.662;37.300;2023-11-19T09:24:45;7.47;;;3.13;;
75887;SDS011;64562;55.662;37.300;2023-11-19T09:27:11;6.43;;;3.33;;
75887;SDS011;64562;55.662;37.300;2023-11-19T09:29:38;5.78;;;2.90;;
75887;SDS011;64562;55.662;37.300;2023-11-19T09:32:05;4.68;;;2.80;;
75887;SDS011;64562;55.662;37.300;2023-11-19T09:34:32;8.00;;;3.17;;
75887;SDS011;64562;55.662;37.300;2023-11-19T09:37:00;6.75;;;3.88;;
75887;SDS011;64562;55.662;37.300;2023-11-19T09:39:28;4.70;;;2.67;;
75887;SDS011;64562;55.662;37.300;2023-11-19T09:41:54;6.22;;;2.80;;
75887;SDS011;64562;55.662;37.300;2023-11-19T09:44:21;9.98;;;3.20;;
75887;SDS011;64562;55.662;37.300;2023-11-19T09:46:47;5.05;;;2.80;;
75887;SDS011;64562;55.662;37.300;2023-11-19T09:49:14;5.13;;;2.83;;
75887;SDS011;64562;55.662;37.300;2023-11-19T09:51:43;7.05;;;2.97;;
75887;SDS011;64562;55.662;37.300;2023-11-19T09:54:11;7.20;;;3.08;;
75887;SDS011;64562;55.662;37.300;2023-11-19T09:56:38;4.70;;;2.38;;
75887;SDS011;64562;55.662;37.300;2023-11-19T09:59:05;8.63;;;2.75;;
75887;SDS011;64562;55.662;37.300;2023-11-19T10:01:32;5.32;;;2.97;;
75887;SDS011;64562;55.662;37.300;2023-11-19T10:03:59;5.05;;;2.53;;
75887;SDS011;64562;55.662;37.300;2023-11-19T10:06:26;4.70;;;2.42;;
75887;SDS011;64562;55.662;37.300;2023-11-19T10:08:53;5.75;;;2.72;;
75887;SDS011;64562;55.662;37.300;2023-11-19T10:11:22;12.80;;;2.78;;
75887;SDS011;64562;55.662;37.300;2023-11-19T10:13:48;7.90;;;2.55;;
75887;SDS011;64562;55.662;37.300;2023-11-19T10:16:15;5.00;;;2.20;;
75887;SDS011;64562;55.662;37.300;2023-11-19T10:18:42;5.95;;;2.47;;
75887;SDS011;64562;55.662;37.300;2023-11-19T10:21:10;6.13;;;2.90;;
75887;SDS011;64562;55.662;37.300;2023-11-19T10:23:51;8.18;;;2.85;;
75887;SDS011;64562;55.662;37.300;2023-11-19T10:26:18;9.05;;;2.95;;
75887;SDS011;64562;55.662;37.300;2023-11-19T10:28:47;5.65;;;2.55;;
75887;SDS011;64562;55.662;37.300;2023-11-19T10:31:14;7.22;;;2.50;;
75887;SDS011;64562;55.662;37.300;2023-11-19T10:33:40;10.60;;;2.80;;
75887;SDS011;64562;55.662;37.300;2023-11-19T10:36:07;7.82;;;2.70;;
75887;SDS011;64562;55.662;37.300;2023-11-19T10:38:34;4.78;;;2.55;;
75887;SDS011;64562;55.662;37.300;2023-11-19T10:41:01;5.22;;;2.65;;
75887;SDS011;64562;55.662;37.300;2023-11-19T10:43:29;11.25;;;2.40;;
75887;SDS011;64562;55.662;37.300;2023-11-19T10:46:08;5.85;;;2.58;;
75887;SDS011;64562;55.662;37.300;2023-11-19T10:48:35;5.85;;;2.50;;
75887;SDS011;64562;55.662;37.300;2023-11-19T10:51:01;6.25;;;2.63;;
75887;SDS011;64562;55.662;37.300;2023-11-19T10:53:31;6.25;;;2.70;;
75887;SDS011;64562;55.662;37.300;2023-11-19T10:55:59;7.55;;;2.35;;
75887;SDS011;64562;55.662;37.300;2023-11-19T10:58:28;5.82;;;3.63;;
75887;SDS011;64562;55.662;37.300;2023-11-19T11:00:55;14.02;;;2.78;;
75887;SDS011;64562;55.662;37.300;2023-11-19T11:03:25;8.73;;;2.42;;
75887;SDS011;64562;55.662;37.300;2023-11-19T11:05:52;6.22;;;2.85;;
75887;SDS011;64562;55.662;37.300;2023-11-19T11:08:19;7.65;;;2.70;;
75887;SDS011;64562;55.662;37.300;2023-11-19T11:10:48;5.20;;;2.53;;
75887;SDS011;64562;55.662;37.300;2023-11-19T11:13:17;6.20;;;2.50;;
75887;SDS011;64562;55.662;37.300;2023-11-19T11:15:44;5.35;;;2.60;;
75887;SDS011;64562;55.662;37.300;2023-11-19T11:18:12;5.03;;;2.42;;
75887;SDS011;64562;55.662;37.300;2023-11-19T11:20:40;5.35;;;2.67;;
75887;SDS011;64562;55.662;37.300;2023-11-19T11:25:50;9.18;;;2.72;;
75887;SDS011;64562;55.662;37.300;2023-11-19T11:28:24;6.43;;;2.70;;
75887;SDS011;64562;55.662;37.300;2023-11-19T11:31:08;7.50;;;2.50;;
75887;SDS011;64562;55.662;37.300;2023-11-19T11:33:40;7.93;;;2.55;;
75887;SDS011;64562;55.662;37.300;2023-11-19T11:36:13;4.97;;;2.67;;
75887;SDS011;64562;55.662;37.300;2023-11-19T11:38:41;3.92;;;2.35;;
75887;SDS011;64562;55.662;37.300;2023-11-19T11:41:17;6.90;;;2.70;;
75887;SDS011;64562;55.662;37.300;2023-11-19T11:43:45;4.78;;;2.30;;
75887;SDS011;64562;55.662;37.300;2023-11-19T11:48:56;5.57;;;2.55;;
75887;SDS011;64562;55.662;37.300;2023-11-19T11:54:06;4.50;;;2.80;;
75887;SDS011;64562;55.662;37.300;2023-11-19T11:56:36;6.80;;;2.60;;
75887;SDS011;64562;55.662;37.300;2023-11-19T11:59:03;4.75;;;2.47;;
75887;SDS011;64562;55.662;37.300;2023-11-19T12:01:31;8.65;;;2.50;;
75887;SDS011;64562;55.662;37.300;2023-11-19T12:03:57;6.13;;;2.70;;
75887;SDS011;64562;55.662;37.300;2023-11-19T12:06:26;10.45;;;2.63;;
75887;SDS011;64562;55.662;37.300;2023-11-19T12:08:53;7.10;;;2.40;;
75887;SDS011;64562;55.662;37.300;2023-11-19T12:11:27;4.30;;;2.05;;
75887;SDS011;64562;55.662;37.300;2023-11-19T12:13:57;6.57;;;2.58;;
75887;SDS011;64562;55.662;37.300;2023-11-19T12:16:27;3.33;;;1.83;;
75887;SDS011;64562;55.662;37.300;2023-11-19T12:18:54;3.05;;;2.00;;
75887;SDS011;64562;55.662;37.300;2023-11-19T12:21:28;4.50;;;1.90;;
75887;SDS011;64562;55.662;37.300;2023-11-19T12:23:55;4.93;;;2.15;;
75887;SDS011;64562;55.662;37.300;2023-11-19T12:26:36;5.80;;;2.08;;
75887;SDS011;64562;55.662;37.300;2023-11-19T12:29:03;5.55;;;2.15;;
75887;SDS011;64562;55.662;37.300;2023-11-19T12:31:31;6.95;;;1.95;;
75887;SDS011;64562;55.662;37.300;2023-11-19T12:33:58;5.22;;;2.33;;
75887;SDS011;64562;55.662;37.300;2023-11-19T12:36:25;3.63;;;2.08;;
75887;SDS011;64562;55.662;37.300;2023-11-19T12:38:51;4.53;;;2.10;;
75887;SDS011;64562;55.662;37.300;2023-11-19T12:41:18;4.35;;;2.13;;
75887;SDS011;64562;55.662;37.300;2023-11-19T12:43:49;3.05;;;2.15;;
75887;SDS011;64562;55.662;37.300;2023-11-19T12:46:17;4.10;;;1.92;;
75887;SDS011;64562;55.662;37.300;2023-11-19T12:48:44;4.85;;;1.98;;
75887;SDS011;64562;55.662;37.300;2023-11-19T12:51:11;4.82;;;1.90;;
75887;SDS011;64562;55.662;37.300;2023-11-19T12:53:46;4.10;;;1.98;;
75887;SDS011;64562;55.662;37.300;2023-11-19T12:56:13;3.20;;;1.95;;
75887;SDS011;64562;55.662;37.300;2023-11-19T12:58:41;3.40;;;1.98;;
75887;SDS011;64562;55.662;37.300;2023-11-19T13:01:09;3.80;;;2.03;;
75887;SDS011;64562;55.662;37.300;2023-11-19T13:03:36;4.20;;;2.10;;
75887;SDS011;64562;55.662;37.300;2023-11-19T13:06:04;3.78;;;1.92;;
75887;SDS011;64562;55.662;37.300;2023-11-19T13:08:36;5.03;;;1.98;;
75887;SDS011;64562;55.662;37.300;2023-11-19T13:11:04;5.60;;;1.83;;
75887;SDS011;64562;55.662;37.300;2023-11-19T13:13:31;4.75;;;1.95;;
75887;SDS011;64562;55.662;37.300;2023-11-19T13:16:01;5.78;;;2.05;;
75887;SDS011;64562;55.662;37.300;2023-11-19T13:18:33;4.53;;;2.13;;
75887;SDS011;64562;55.662;37.300;2023-11-19T13:20:59;3.65;;;2.13;;
75887;SDS011;64562;55.662;37.300;2023-11-19T13:23:26;7.93;;;2.13;;
75887;SDS011;64562;55.662;37.300;2023-11-19T13:25:53;3.55;;;2.00;;
75887;SDS011;64562;55.662;37.300;2023-11-19T13:28:19;5.25;;;2.05;;
75887;SDS011;64562;55.662;37.300;2023-11-19T13:30:46;5.30;;;1.92;;
75887;SDS011;64562;55.662;37.300;2023-11-19T13:33:12;4.45;;;2.13;;
75887;SDS011;64562;55.662;37.300;2023-11-19T13:35:41;4.40;;;2.03;;
75887;SDS011;64562;55.662;37.300;2023-11-19T13:38:08;4.78;;;2.10;;
75887;SDS011;64562;55.662;37.300;2023-11-19T13:40:35;3.53;;;2.03;;
75887;SDS011;64562;55.662;37.300;2023-11-19T13:43:01;5.10;;;2.08;;
75887;SDS011;64562;55.662;37.300;2023-11-19T13:45:28;5.55;;;1.98;;
75887;SDS011;64562;55.662;37.300;2023-11-19T13:47:54;4.70;;;1.90;;
75887;SDS011;64562;55.662;37.300;2023-11-19T13:50:21;4.57;;;1.90;;
75887;SDS011;64562;55.662;37.300;2023-11-19T13:52:50;3.50;;;2.35;;
75887;SDS011;64562;55.662;37.300;2023-11-19T13:55:16;4.82;;;2.22;;
75887;SDS011;64562;55.662;37.300;2023-11-19T13:57:43;3.45;;;2.20;;
75887;SDS011;64562;55.662;37.300;2023-11-19T14:00:11;4.00;;;2.15;;
75887;SDS011;64562;55.662;37.300;2023-11-19T14:02:38;4.13;;;2.08;;
75887;SDS011;64562;55.662;37.300;2023-11-19T14:05:05;5.40;;;1.95;;
75887;SDS011;64562;55.662;37.300;2023-11-19T14:07:32;4.47;;;2.25;;
75887;SDS011;64562;55.662;37.300;2023-11-19T14:10:00;4.70;;;2.00;;
75887;SDS011;64562;55.662;37.300;2023-11-19T14:12:26;4.30;;;2.45;;
75887;SDS011;64562;55.662;37.300;2023-11-19T14:14:53;4.38;;;2.53;;
75887;SDS011;64562;55.662;37.300;2023-11-19T14:17:20;7.13;;;2.28;;
75887;SDS011;64562;55.662;37.300;2023-11-19T14:19:47;4.45;;;2.03;;
75887;SDS011;64562;55.662;37.300;2023-11-19T14:22:14;4.55;;;2.58;;
75887;SDS011;64562;55.662;37.300;2023-11-19T14:24:41;5.57;;;2.35;;
75887;SDS011;64562;55.662;37.300;2023-11-19T14:27:09;3.47;;;2.28;;
75887;SDS011;64562;55.662;37.300;2023-11-19T14:29:36;4.95;;;2.20;;
75887;SDS011;64562;55.662;37.300;2023-11-19T14:32:03;3.25;;;2.00;;
75887;SDS011;64562;55.662;37.300;2023-11-19T14:34:29;4.43;;;2.25;;
75887;SDS011;64562;55.662;37.300;2023-11-19T14:36:57;8.23;;;2.40;;
75887;SDS011;64562;55.662;37.300;2023-11-19T14:39:23;5.65;;;1.98;;
75887;SDS011;64562;55.662;37.300;2023-11-19T14:41:50;4.65;;;2.40;;